sensor_id;sensor_type;location;lat;lon;timestamp;P1;durP1;ratioP1;P2;durP2;ratioP2
59468;SDS011;45277;52.768;18.262;2023-12-20T00:00:28;1.30;;;1.30;;
59468;SDS011;45277;52.768;18.262;2023-12-20T00:02:19;1.52;;;1.48;;
59468;SDS011;45277;52.768;18.262;2023-12-20T00:03:51;1.10;;;1.10;;
59468;SDS011;45277;52.768;18.262;2023-12-20T00:05:23;2.92;;;2.08;;
59468;SDS011;45277;52.768;18.262;2023-12-20T00:06:54;1.00;;;1.00;;
59468;SDS011;45277;52.768;18.262;2023-12-20T00:08:25;1.42;;;1.38;;
59468;SDS011;45277;52.768;18.262;2023-12-20T00:09:57;1.13;;;1.13;;
59468;SDS011;45277;52.768;18.262;2023-12-20T00:11:28;1.20;;;1.20;;
59468;SDS011;45277;52.768;18.262;2023-12-20T00:12:59;1.27;;;1.27;;
59468;SDS011;45277;52.768;18.262;2023-12-20T00:14:31;1.33;;;1.33;;
59468;SDS011;45277;52.768;18.262;2023-12-20T00:16:02;2.08;;;1.90;;
59468;SDS011;45277;52.768;18.262;2023-12-20T00:17:34;1.20;;;1.20;;
59468;SDS011;45277;52.768;18.262;2023-12-20T00:19:05;1.27;;;1.27;;
59468;SDS011;45277;52.768;18.262;2023-12-20T00:20:37;1.25;;;1.25;;
59468;SDS011;45277;52.768;18.262;2023-12-20T00:22:08;1.17;;;1.17;;
59468;SDS011;45277;52.768;18.262;2023-12-20T00:23:40;1.52;;;1.52;;
59468;SDS011;45277;52.768;18.262;2023-12-20T00:25:11;3.03;;;1.33;;
59468;SDS011;45277;52.768;18.262;2023-12-20T00:26:42;1.30;;;1.30;;
59468;SDS011;45277;52.768;18.262;2023-12-20T00:28:14;1.35;;;1.35;;
59468;SDS011;45277;52.768;18.262;2023-12-20T00:29:45;1.38;;;1.27;;
59468;SDS011;45277;52.768;18.262;2023-12-20T00:31:20;2.15;;;1.90;;
59468;SDS011;45277;52.768;18.262;2023-12-20T00:32:51;1.90;;;1.85;;
59468;SDS011;45277;52.768;18.262;2023-12-20T00:34:23;1.55;;;1.55;;
59468;SDS011;45277;52.768;18.262;2023-12-20T00:35:55;2.03;;;1.85;;
59468;SDS011;45277;52.768;18.262;2023-12-20T00:37:26;2.15;;;1.95;;
59468;SDS011;45277;52.768;18.262;2023-12-20T00:38:57;1.30;;;1.30;;
59468;SDS011;45277;52.768;18.262;2023-12-20T00:40:29;1.00;;;1.00;;
59468;SDS011;45277;52.768;18.262;2023-12-20T00:42:00;1.13;;;1.13;;
59468;SDS011;45277;52.768;18.262;2023-12-20T00:43:32;1.88;;;1.77;;
59468;SDS011;45277;52.768;18.262;2023-12-20T00:45:03;1.10;;;1.10;;
59468;SDS011;45277;52.768;18.262;2023-12-20T00:46:35;1.27;;;1.27;;
59468;SDS011;45277;52.768;18.262;2023-12-20T00:48:07;1.17;;;1.17;;
59468;SDS011;45277;52.768;18.262;2023-12-20T00:49:38;1.25;;;1.25;;
59468;SDS011;45277;52.768;18.262;2023-12-20T00:51:10;1.50;;;1.50;;
59468;SDS011;45277;52.768;18.262;2023-12-20T00:52:41;1.48;;;1.45;;
59468;SDS011;45277;52.768;18.262;2023-12-20T00:54:12;1.23;;;1.23;;
59468;SDS011;45277;52.768;18.262;2023-12-20T00:55:44;2.05;;;1.95;;
59468;SDS011;45277;52.768;18.262;2023-12-20T00:57:16;2.17;;;2.08;;
59468;SDS011;45277;52.768;18.262;2023-12-20T00:58:47;1.17;;;1.17;;
59468;SDS011;45277;52.768;18.262;2023-12-20T01:00:19;1.58;;;1.58;;
59468;SDS011;45277;52.768;18.262;2023-12-20T01:01:50;1.55;;;1.50;;
59468;SDS011;45277;52.768;18.262;2023-12-20T01:03:22;1.33;;;1.33;;
59468;SDS011;45277;52.768;18.262;2023-12-20T01:04:53;1.25;;;1.25;;
59468;SDS011;45277;52.768;18.262;2023-12-20T01:06:25;1.30;;;1.30;;
59468;SDS011;45277;52.768;18.262;2023-12-20T01:07:56;1.45;;;1.45;;
59468;SDS011;45277;52.768;18.262;2023-12-20T01:09:28;1.00;;;1.00;;
59468;SDS011;45277;52.768;18.262;2023-12-20T01:10:59;1.45;;;1.23;;
59468;SDS011;45277;52.768;18.262;2023-12-20T01:12:31;1.80;;;1.75;;
59468;SDS011;45277;52.768;18.262;2023-12-20T01:14:02;2.13;;;2.03;;
59468;SDS011;45277;52.768;18.262;2023-12-20T01:15:33;1.10;;;1.10;;
59468;SDS011;45277;52.768;18.262;2023-12-20T01:17:05;2.83;;;1.70;;
59468;SDS011;45277;52.768;18.262;2023-12-20T01:18:36;1.98;;;1.88;;
59468;SDS011;45277;52.768;18.262;2023-12-20T01:20:08;1.00;;;1.00;;
59468;SDS011;45277;52.768;18.262;2023-12-20T01:21:40;1.30;;;1.30;;
59468;SDS011;45277;52.768;18.262;2023-12-20T01:23:11;1.65;;;1.65;;
59468;SDS011;45277;52.768;18.262;2023-12-20T01:24:43;1.30;;;1.30;;
59468;SDS011;45277;52.768;18.262;2023-12-20T01:26:14;1.15;;;1.15;;
59468;SDS011;45277;52.768;18.262;2023-12-20T01:27:46;1.20;;;1.20;;
59468;SDS011;45277;52.768;18.262;2023-12-20T01:29:17;1.02;;;1.02;;
59468;SDS011;45277;52.768;18.262;2023-12-20T01:30:49;1.55;;;1.52;;
59468;SDS011;45277;52.768;18.262;2023-12-20T01:32:20;1.00;;;1.00;;
59468;SDS011;45277;52.768;18.262;2023-12-20T01:33:51;1.25;;;1.25;;
59468;SDS011;45277;52.768;18.262;2023-12-20T01:35:23;1.20;;;1.20;;
59468;SDS011;45277;52.768;18.262;2023-12-20T01:36:54;1.38;;;1.38;;
59468;SDS011;45277;52.768;18.262;2023-12-20T01:38:25;1.17;;;1.17;;
59468;SDS011;45277;52.768;18.262;2023-12-20T01:39:57;1.15;;;1.15;;
59468;SDS011;45277;52.768;18.262;2023-12-20T01:41:29;1.48;;;1.38;;
59468;SDS011;45277;52.768;18.262;2023-12-20T01:43:00;1.60;;;1.50;;
59468;SDS011;45277;52.768;18.262;2023-12-20T01:44:43;1.08;;;1.08;;
59468;SDS011;45277;52.768;18.262;2023-12-20T01:46:14;1.50;;;1.42;;
59468;SDS011;45277;52.768;18.262;2023-12-20T01:47:46;1.50;;;1.50;;
59468;SDS011;45277;52.768;18.262;2023-12-20T01:49:18;1.10;;;1.10;;
59468;SDS011;45277;52.768;18.262;2023-12-20T01:50:49;1.98;;;1.52;;
59468;SDS011;45277;52.768;18.262;2023-12-20T01:52:20;1.27;;;1.27;;
59468;SDS011;45277;52.768;18.262;2023-12-20T01:53:52;1.63;;;1.52;;
59468;SDS011;45277;52.768;18.262;2023-12-20T01:55:26;3.35;;;2.88;;
59468;SDS011;45277;52.768;18.262;2023-12-20T01:57:00;1.27;;;1.27;;
59468;SDS011;45277;52.768;18.262;2023-12-20T01:58:32;1.00;;;1.00;;
59468;SDS011;45277;52.768;18.262;2023-12-20T02:00:04;1.77;;;1.67;;
59468;SDS011;45277;52.768;18.262;2023-12-20T02:01:36;1.20;;;1.20;;
59468;SDS011;45277;52.768;18.262;2023-12-20T02:03:07;1.13;;;1.13;;
59468;SDS011;45277;52.768;18.262;2023-12-20T02:04:39;1.90;;;1.80;;
59468;SDS011;45277;52.768;18.262;2023-12-20T02:06:11;1.10;;;1.10;;
59468;SDS011;45277;52.768;18.262;2023-12-20T02:07:43;1.52;;;1.50;;
59468;SDS011;45277;52.768;18.262;2023-12-20T02:09:14;1.00;;;1.00;;
59468;SDS011;45277;52.768;18.262;2023-12-20T02:10:46;2.17;;;2.08;;
59468;SDS011;45277;52.768;18.262;2023-12-20T02:12:18;1.13;;;1.13;;
59468;SDS011;45277;52.768;18.262;2023-12-20T02:13:49;1.10;;;1.10;;
59468;SDS011;45277;52.768;18.262;2023-12-20T02:15:20;1.38;;;1.35;;
59468;SDS011;45277;52.768;18.262;2023-12-20T02:16:52;1.27;;;1.27;;
59468;SDS011;45277;52.768;18.262;2023-12-20T02:18:24;1.15;;;1.15;;
59468;SDS011;45277;52.768;18.262;2023-12-20T02:19:55;1.23;;;1.23;;
59468;SDS011;45277;52.768;18.262;2023-12-20T02:21:33;1.20;;;1.20;;
59468;SDS011;45277;52.768;18.262;2023-12-20T02:23:05;1.23;;;1.23;;
59468;SDS011;45277;52.768;18.262;2023-12-20T02:24:36;2.50;;;2.30;;
59468;SDS011;45277;52.768;18.262;2023-12-20T02:26:08;1.83;;;1.73;;
59468;SDS011;45277;52.768;18.262;2023-12-20T02:27:40;1.55;;;1.45;;
59468;SDS011;45277;52.768;18.262;2023-12-20T02:29:12;1.10;;;1.10;;
59468;SDS011;45277;52.768;18.262;2023-12-20T02:30:43;0.90;;;0.90;;
59468;SDS011;45277;52.768;18.262;2023-12-20T02:32:15;1.00;;;1.00;;
59468;SDS011;45277;52.768;18.262;2023-12-20T02:33:50;1.00;;;1.00;;
59468;SDS011;45277;52.768;18.262;2023-12-20T02:35:21;1.10;;;1.10;;
59468;SDS011;45277;52.768;18.262;2023-12-20T02:36:53;1.23;;;1.23;;
59468;SDS011;45277;52.768;18.262;2023-12-20T02:38:24;0.90;;;0.90;;
59468;SDS011;45277;52.768;18.262;2023-12-20T02:39:55;1.10;;;1.10;;
59468;SDS011;45277;52.768;18.262;2023-12-20T02:41:27;2.00;;;1.90;;
59468;SDS011;45277;52.768;18.262;2023-12-20T02:42:58;1.42;;;1.42;;
59468;SDS011;45277;52.768;18.262;2023-12-20T02:44:29;1.20;;;1.20;;
59468;SDS011;45277;52.768;18.262;2023-12-20T02:46:01;0.98;;;0.98;;
59468;SDS011;45277;52.768;18.262;2023-12-20T02:47:32;1.35;;;1.35;;
59468;SDS011;45277;52.768;18.262;2023-12-20T02:49:03;1.10;;;1.10;;
59468;SDS011;45277;52.768;18.262;2023-12-20T02:50:35;1.02;;;1.02;;
59468;SDS011;45277;52.768;18.262;2023-12-20T02:52:06;1.10;;;1.10;;
59468;SDS011;45277;52.768;18.262;2023-12-20T02:53:37;1.95;;;1.85;;
59468;SDS011;45277;52.768;18.262;2023-12-20T02:55:09;1.00;;;1.00;;
59468;SDS011;45277;52.768;18.262;2023-12-20T02:56:40;1.05;;;1.05;;
59468;SDS011;45277;52.768;18.262;2023-12-20T02:58:12;1.15;;;1.15;;
59468;SDS011;45277;52.768;18.262;2023-12-20T02:59:43;1.10;;;1.10;;
59468;SDS011;45277;52.768;18.262;2023-12-20T03:01:14;1.10;;;1.10;;
59468;SDS011;45277;52.768;18.262;2023-12-20T03:02:46;1.25;;;1.15;;
59468;SDS011;45277;52.768;18.262;2023-12-20T03:04:17;1.30;;;1.30;;
59468;SDS011;45277;52.768;18.262;2023-12-20T03:05:48;1.60;;;1.50;;
59468;SDS011;45277;52.768;18.262;2023-12-20T03:07:20;1.33;;;1.33;;
59468;SDS011;45277;52.768;18.262;2023-12-20T03:08:51;0.80;;;0.80;;
59468;SDS011;45277;52.768;18.262;2023-12-20T03:10:22;0.90;;;0.90;;
59468;SDS011;45277;52.768;18.262;2023-12-20T03:11:54;1.15;;;1.15;;
59468;SDS011;45277;52.768;18.262;2023-12-20T03:13:25;1.00;;;1.00;;
59468;SDS011;45277;52.768;18.262;2023-12-20T03:14:56;1.23;;;1.23;;
59468;SDS011;45277;52.768;18.262;2023-12-20T03:16:28;1.15;;;1.15;;
59468;SDS011;45277;52.768;18.262;2023-12-20T03:17:59;1.23;;;1.23;;
59468;SDS011;45277;52.768;18.262;2023-12-20T03:19:31;0.90;;;0.90;;
59468;SDS011;45277;52.768;18.262;2023-12-20T03:21:02;1.23;;;1.23;;
59468;SDS011;45277;52.768;18.262;2023-12-20T03:22:34;1.15;;;1.15;;
59468;SDS011;45277;52.768;18.262;2023-12-20T03:24:06;13.05;;;1.65;;
59468;SDS011;45277;52.768;18.262;2023-12-20T03:25:37;1.20;;;1.20;;
59468;SDS011;45277;52.768;18.262;2023-12-20T03:27:08;0.90;;;0.90;;
59468;SDS011;45277;52.768;18.262;2023-12-20T03:28:40;1.38;;;1.35;;
59468;SDS011;45277;52.768;18.262;2023-12-20T03:30:11;1.13;;;1.13;;
59468;SDS011;45277;52.768;18.262;2023-12-20T03:31:43;1.00;;;1.00;;
59468;SDS011;45277;52.768;18.262;2023-12-20T03:33:14;1.25;;;1.25;;
59468;SDS011;45277;52.768;18.262;2023-12-20T03:34:46;1.80;;;1.70;;
59468;SDS011;45277;52.768;18.262;2023-12-20T03:36:19;1.23;;;1.23;;
59468;SDS011;45277;52.768;18.262;2023-12-20T03:37:50;1.00;;;1.00;;
59468;SDS011;45277;52.768;18.262;2023-12-20T03:39:22;0.98;;;0.98;;
59468;SDS011;45277;52.768;18.262;2023-12-20T03:40:53;1.33;;;1.33;;
59468;SDS011;45277;52.768;18.262;2023-12-20T03:42:24;0.90;;;0.90;;
59468;SDS011;45277;52.768;18.262;2023-12-20T03:43:56;3.50;;;1.67;;
59468;SDS011;45277;52.768;18.262;2023-12-20T03:45:27;1.25;;;1.10;;
59468;SDS011;45277;52.768;18.262;2023-12-20T03:46:58;1.50;;;1.50;;
59468;SDS011;45277;52.768;18.262;2023-12-20T03:48:33;1.33;;;1.33;;
59468;SDS011;45277;52.768;18.262;2023-12-20T03:50:04;1.35;;;1.35;;
59468;SDS011;45277;52.768;18.262;2023-12-20T03:51:36;1.42;;;1.33;;
59468;SDS011;45277;52.768;18.262;2023-12-20T03:53:07;1.15;;;1.15;;
59468;SDS011;45277;52.768;18.262;2023-12-20T03:54:39;0.95;;;0.95;;
59468;SDS011;45277;52.768;18.262;2023-12-20T03:56:12;1.17;;;1.17;;
59468;SDS011;45277;52.768;18.262;2023-12-20T03:57:44;1.55;;;1.55;;
59468;SDS011;45277;52.768;18.262;2023-12-20T03:59:15;1.35;;;1.35;;
59468;SDS011;45277;52.768;18.262;2023-12-20T04:00:49;1.50;;;1.40;;
59468;SDS011;45277;52.768;18.262;2023-12-20T04:02:20;1.02;;;1.02;;
59468;SDS011;45277;52.768;18.262;2023-12-20T04:03:52;1.00;;;1.00;;
59468;SDS011;45277;52.768;18.262;2023-12-20T04:05:23;1.10;;;1.10;;
59468;SDS011;45277;52.768;18.262;2023-12-20T04:06:54;0.93;;;0.93;;
59468;SDS011;45277;52.768;18.262;2023-12-20T04:08:26;1.10;;;1.10;;
59468;SDS011;45277;52.768;18.262;2023-12-20T04:09:57;1.13;;;1.13;;
59468;SDS011;45277;52.768;18.262;2023-12-20T04:11:29;1.20;;;1.20;;
59468;SDS011;45277;52.768;18.262;2023-12-20T04:13:00;1.05;;;1.05;;
59468;SDS011;45277;52.768;18.262;2023-12-20T04:14:31;1.20;;;1.20;;
59468;SDS011;45277;52.768;18.262;2023-12-20T04:16:03;1.20;;;1.20;;
59468;SDS011;45277;52.768;18.262;2023-12-20T04:17:35;1.00;;;1.00;;
59468;SDS011;45277;52.768;18.262;2023-12-20T04:19:06;1.15;;;1.15;;
59468;SDS011;45277;52.768;18.262;2023-12-20T04:20:38;1.15;;;1.13;;
59468;SDS011;45277;52.768;18.262;2023-12-20T04:22:09;1.00;;;1.00;;
59468;SDS011;45277;52.768;18.262;2023-12-20T04:23:40;1.75;;;1.67;;
59468;SDS011;45277;52.768;18.262;2023-12-20T04:25:12;1.65;;;1.55;;
59468;SDS011;45277;52.768;18.262;2023-12-20T04:26:43;1.00;;;1.00;;
59468;SDS011;45277;52.768;18.262;2023-12-20T04:28:15;1.00;;;1.00;;
59468;SDS011;45277;52.768;18.262;2023-12-20T04:29:46;1.00;;;1.00;;
59468;SDS011;45277;52.768;18.262;2023-12-20T04:31:17;0.90;;;0.90;;
59468;SDS011;45277;52.768;18.262;2023-12-20T04:32:49;2.13;;;1.92;;
59468;SDS011;45277;52.768;18.262;2023-12-20T04:34:21;1.33;;;1.33;;
59468;SDS011;45277;52.768;18.262;2023-12-20T04:35:53;1.63;;;1.55;;
59468;SDS011;45277;52.768;18.262;2023-12-20T04:37:24;1.00;;;1.00;;
59468;SDS011;45277;52.768;18.262;2023-12-20T04:38:56;1.10;;;1.10;;
59468;SDS011;45277;52.768;18.262;2023-12-20T04:40:27;1.27;;;1.27;;
59468;SDS011;45277;52.768;18.262;2023-12-20T04:41:58;0.80;;;0.80;;
59468;SDS011;45277;52.768;18.262;2023-12-20T04:43:30;1.00;;;1.00;;
59468;SDS011;45277;52.768;18.262;2023-12-20T04:45:01;1.58;;;1.55;;
59468;SDS011;45277;52.768;18.262;2023-12-20T04:46:33;1.00;;;1.00;;
59468;SDS011;45277;52.768;18.262;2023-12-20T04:48:05;0.88;;;0.88;;
59468;SDS011;45277;52.768;18.262;2023-12-20T04:49:36;1.13;;;1.13;;
59468;SDS011;45277;52.768;18.262;2023-12-20T04:51:08;1.75;;;1.55;;
59468;SDS011;45277;52.768;18.262;2023-12-20T04:52:39;1.08;;;1.08;;
59468;SDS011;45277;52.768;18.262;2023-12-20T04:54:10;1.10;;;1.10;;
59468;SDS011;45277;52.768;18.262;2023-12-20T04:55:42;1.20;;;1.20;;
59468;SDS011;45277;52.768;18.262;2023-12-20T04:57:14;0.95;;;0.95;;
59468;SDS011;45277;52.768;18.262;2023-12-20T04:58:45;1.23;;;1.23;;
59468;SDS011;45277;52.768;18.262;2023-12-20T05:00:17;1.00;;;1.00;;
59468;SDS011;45277;52.768;18.262;2023-12-20T05:01:49;1.13;;;1.13;;
59468;SDS011;45277;52.768;18.262;2023-12-20T05:03:20;0.90;;;0.90;;
59468;SDS011;45277;52.768;18.262;2023-12-20T05:04:51;1.42;;;1.42;;
59468;SDS011;45277;52.768;18.262;2023-12-20T05:06:23;1.17;;;1.17;;
59468;SDS011;45277;52.768;18.262;2023-12-20T05:07:55;1.10;;;1.10;;
59468;SDS011;45277;52.768;18.262;2023-12-20T05:09:26;1.00;;;1.00;;
59468;SDS011;45277;52.768;18.262;2023-12-20T05:10:58;1.00;;;1.00;;
59468;SDS011;45277;52.768;18.262;2023-12-20T05:12:29;1.00;;;1.00;;
59468;SDS011;45277;52.768;18.262;2023-12-20T05:14:01;1.20;;;1.20;;
59468;SDS011;45277;52.768;18.262;2023-12-20T05:15:32;1.10;;;1.10;;
59468;SDS011;45277;52.768;18.262;2023-12-20T05:17:04;1.65;;;1.55;;
59468;SDS011;45277;52.768;18.262;2023-12-20T05:18:35;1.00;;;1.00;;
59468;SDS011;45277;52.768;18.262;2023-12-20T05:20:07;1.10;;;1.10;;
59468;SDS011;45277;52.768;18.262;2023-12-20T05:21:38;1.13;;;1.13;;
59468;SDS011;45277;52.768;18.262;2023-12-20T05:23:09;0.95;;;0.95;;
59468;SDS011;45277;52.768;18.262;2023-12-20T05:24:42;1.00;;;1.00;;
59468;SDS011;45277;52.768;18.262;2023-12-20T05:26:13;0.90;;;0.90;;
59468;SDS011;45277;52.768;18.262;2023-12-20T05:27:45;1.42;;;1.42;;
59468;SDS011;45277;52.768;18.262;2023-12-20T05:29:16;1.00;;;1.00;;
59468;SDS011;45277;52.768;18.262;2023-12-20T05:30:47;1.67;;;1.58;;
59468;SDS011;45277;52.768;18.262;2023-12-20T05:32:19;1.05;;;1.05;;
59468;SDS011;45277;52.768;18.262;2023-12-20T05:33:50;3.75;;;2.00;;
59468;SDS011;45277;52.768;18.262;2023-12-20T05:35:22;1.00;;;1.00;;
59468;SDS011;45277;52.768;18.262;2023-12-20T05:36:53;1.15;;;1.15;;
59468;SDS011;45277;52.768;18.262;2023-12-20T05:38:25;2.05;;;1.10;;
59468;SDS011;45277;52.768;18.262;2023-12-20T05:39:57;2.17;;;2.08;;
59468;SDS011;45277;52.768;18.262;2023-12-20T05:41:28;1.48;;;1.48;;
59468;SDS011;45277;52.768;18.262;2023-12-20T05:43:00;4.20;;;2.13;;
59468;SDS011;45277;52.768;18.262;2023-12-20T05:44:31;1.30;;;1.30;;
59468;SDS011;45277;52.768;18.262;2023-12-20T05:46:02;2.40;;;1.48;;
59468;SDS011;45277;52.768;18.262;2023-12-20T05:47:34;1.23;;;1.23;;
59468;SDS011;45277;52.768;18.262;2023-12-20T05:49:06;8.57;;;2.25;;
59468;SDS011;45277;52.768;18.262;2023-12-20T05:50:37;1.75;;;1.48;;
59468;SDS011;45277;52.768;18.262;2023-12-20T05:52:10;1.10;;;1.10;;
59468;SDS011;45277;52.768;18.262;2023-12-20T05:53:41;7.38;;;1.13;;
59468;SDS011;45277;52.768;18.262;2023-12-20T05:55:12;1.65;;;1.65;;
59468;SDS011;45277;52.768;18.262;2023-12-20T05:56:44;1.88;;;1.77;;
59468;SDS011;45277;52.768;18.262;2023-12-20T05:58:15;1.33;;;1.33;;
59468;SDS011;45277;52.768;18.262;2023-12-20T05:59:47;1.23;;;1.23;;
59468;SDS011;45277;52.768;18.262;2023-12-20T06:01:18;1.38;;;1.38;;
59468;SDS011;45277;52.768;18.262;2023-12-20T06:02:50;9.32;;;5.00;;
59468;SDS011;45277;52.768;18.262;2023-12-20T06:04:21;2.78;;;2.58;;
59468;SDS011;45277;52.768;18.262;2023-12-20T06:05:53;2.50;;;2.30;;
59468;SDS011;45277;52.768;18.262;2023-12-20T06:07:24;3.60;;;2.45;;
59468;SDS011;45277;52.768;18.262;2023-12-20T06:08:56;1.25;;;1.25;;
59468;SDS011;45277;52.768;18.262;2023-12-20T06:10:28;1.60;;;1.60;;
59468;SDS011;45277;52.768;18.262;2023-12-20T06:12:00;4.80;;;4.50;;
59468;SDS011;45277;52.768;18.262;2023-12-20T06:13:31;3.50;;;3.17;;
59468;SDS011;45277;52.768;18.262;2023-12-20T06:15:03;18.55;;;5.72;;
59468;SDS011;45277;52.768;18.262;2023-12-20T06:16:36;5.78;;;3.33;;
59468;SDS011;45277;52.768;18.262;2023-12-20T06:18:08;3.70;;;3.42;;
59468;SDS011;45277;52.768;18.262;2023-12-20T06:19:39;1.35;;;1.35;;
59468;SDS011;45277;52.768;18.262;2023-12-20T06:21:13;16.75;;;2.10;;
59468;SDS011;45277;52.768;18.262;2023-12-20T06:22:44;1.35;;;1.33;;
59468;SDS011;45277;52.768;18.262;2023-12-20T06:24:16;2.25;;;2.15;;
59468;SDS011;45277;52.768;18.262;2023-12-20T06:25:48;1.48;;;1.48;;
59468;SDS011;45277;52.768;18.262;2023-12-20T06:27:19;1.40;;;1.38;;
59468;SDS011;45277;52.768;18.262;2023-12-20T06:28:51;1.17;;;1.17;;
59468;SDS011;45277;52.768;18.262;2023-12-20T06:30:22;1.20;;;1.20;;
59468;SDS011;45277;52.768;18.262;2023-12-20T06:31:55;13.90;;;2.30;;
59468;SDS011;45277;52.768;18.262;2023-12-20T06:33:27;1.20;;;1.20;;
59468;SDS011;45277;52.768;18.262;2023-12-20T06:34:59;2.30;;;1.58;;
59468;SDS011;45277;52.768;18.262;2023-12-20T06:36:31;1.20;;;1.20;;
59468;SDS011;45277;52.768;18.262;2023-12-20T06:38:02;1.40;;;1.40;;
59468;SDS011;45277;52.768;18.262;2023-12-20T06:39:34;1.45;;;1.45;;
59468;SDS011;45277;52.768;18.262;2023-12-20T06:41:06;1.23;;;1.23;;
59468;SDS011;45277;52.768;18.262;2023-12-20T06:42:37;2.35;;;2.15;;
59468;SDS011;45277;52.768;18.262;2023-12-20T06:44:08;2.25;;;2.13;;
59468;SDS011;45277;52.768;18.262;2023-12-20T06:45:40;2.60;;;2.40;;
59468;SDS011;45277;52.768;18.262;2023-12-20T06:47:11;1.70;;;1.67;;
59468;SDS011;45277;52.768;18.262;2023-12-20T06:48:44;1.30;;;1.30;;
59468;SDS011;45277;52.768;18.262;2023-12-20T06:50:16;1.40;;;1.30;;
59468;SDS011;45277;52.768;18.262;2023-12-20T06:51:47;1.10;;;1.10;;
59468;SDS011;45277;52.768;18.262;2023-12-20T06:53:19;1.63;;;1.63;;
59468;SDS011;45277;52.768;18.262;2023-12-20T06:54:50;1.50;;;1.40;;
59468;SDS011;45277;52.768;18.262;2023-12-20T06:56:21;1.42;;;1.42;;
59468;SDS011;45277;52.768;18.262;2023-12-20T06:57:53;2.47;;;1.67;;
59468;SDS011;45277;52.768;18.262;2023-12-20T06:59:25;1.23;;;1.23;;
59468;SDS011;45277;52.768;18.262;2023-12-20T07:00:57;1.15;;;1.10;;
59468;SDS011;45277;52.768;18.262;2023-12-20T07:02:28;1.90;;;1.80;;
59468;SDS011;45277;52.768;18.262;2023-12-20T07:04:01;2.30;;;2.20;;
59468;SDS011;45277;52.768;18.262;2023-12-20T07:05:32;4.60;;;2.40;;
59468;SDS011;45277;52.768;18.262;2023-12-20T07:07:04;4.55;;;2.65;;
59468;SDS011;45277;52.768;18.262;2023-12-20T07:08:35;2.78;;;2.55;;
59468;SDS011;45277;52.768;18.262;2023-12-20T07:10:07;2.03;;;1.92;;
59468;SDS011;45277;52.768;18.262;2023-12-20T07:11:38;1.55;;;1.52;;
59468;SDS011;45277;52.768;18.262;2023-12-20T07:13:10;1.40;;;1.40;;
59468;SDS011;45277;52.768;18.262;2023-12-20T07:14:41;1.88;;;1.73;;
59468;SDS011;45277;52.768;18.262;2023-12-20T07:16:13;1.73;;;1.67;;
59468;SDS011;45277;52.768;18.262;2023-12-20T07:17:44;1.75;;;1.27;;
59468;SDS011;45277;52.768;18.262;2023-12-20T07:19:16;1.20;;;1.20;;
59468;SDS011;45277;52.768;18.262;2023-12-20T07:20:47;2.65;;;1.92;;
59468;SDS011;45277;52.768;18.262;2023-12-20T07:22:18;1.38;;;1.38;;
59468;SDS011;45277;52.768;18.262;2023-12-20T07:23:50;1.20;;;1.20;;
59468;SDS011;45277;52.768;18.262;2023-12-20T07:25:21;2.05;;;1.65;;
59468;SDS011;45277;52.768;18.262;2023-12-20T07:26:52;4.05;;;3.05;;
59468;SDS011;45277;52.768;18.262;2023-12-20T07:28:24;3.13;;;2.92;;
59468;SDS011;45277;52.768;18.262;2023-12-20T07:29:55;4.18;;;3.38;;
59468;SDS011;45277;52.768;18.262;2023-12-20T07:31:27;8.80;;;2.75;;
59468;SDS011;45277;52.768;18.262;2023-12-20T07:32:58;1.15;;;1.10;;
59468;SDS011;45277;52.768;18.262;2023-12-20T07:34:29;2.17;;;2.08;;
59468;SDS011;45277;52.768;18.262;2023-12-20T07:36:01;12.68;;;8.10;;
59468;SDS011;45277;52.768;18.262;2023-12-20T07:37:33;7.70;;;6.82;;
59468;SDS011;45277;52.768;18.262;2023-12-20T07:39:04;4.35;;;3.90;;
59468;SDS011;45277;52.768;18.262;2023-12-20T07:40:35;16.67;;;10.07;;
59468;SDS011;45277;52.768;18.262;2023-12-20T07:42:08;9.55;;;6.13;;
59468;SDS011;45277;52.768;18.262;2023-12-20T07:43:40;4.38;;;4.07;;
59468;SDS011;45277;52.768;18.262;2023-12-20T07:45:11;1.10;;;1.10;;
59468;SDS011;45277;52.768;18.262;2023-12-20T07:46:43;7.32;;;6.00;;
59468;SDS011;45277;52.768;18.262;2023-12-20T07:48:14;14.80;;;10.65;;
59468;SDS011;45277;52.768;18.262;2023-12-20T07:49:49;2.75;;;2.65;;
59468;SDS011;45277;52.768;18.262;2023-12-20T07:51:22;7.07;;;5.90;;
59468;SDS011;45277;52.768;18.262;2023-12-20T07:52:54;5.03;;;3.30;;
59468;SDS011;45277;52.768;18.262;2023-12-20T07:54:26;19.25;;;9.52;;
59468;SDS011;45277;52.768;18.262;2023-12-20T07:55:58;11.70;;;5.60;;
59468;SDS011;45277;52.768;18.262;2023-12-20T07:57:30;4.30;;;3.88;;
59468;SDS011;45277;52.768;18.262;2023-12-20T07:59:01;3.10;;;2.90;;
59468;SDS011;45277;52.768;18.262;2023-12-20T08:00:34;14.07;;;4.15;;
59468;SDS011;45277;52.768;18.262;2023-12-20T08:02:05;4.28;;;3.60;;
59468;SDS011;45277;52.768;18.262;2023-12-20T08:03:37;3.22;;;3.03;;
59468;SDS011;45277;52.768;18.262;2023-12-20T08:05:13;1.85;;;1.50;;
59468;SDS011;45277;52.768;18.262;2023-12-20T08:06:46;1.60;;;1.60;;
59468;SDS011;45277;52.768;18.262;2023-12-20T08:08:17;1.45;;;1.45;;
59468;SDS011;45277;52.768;18.262;2023-12-20T08:09:50;1.90;;;1.88;;
59468;SDS011;45277;52.768;18.262;2023-12-20T08:11:25;1.67;;;1.50;;
59468;SDS011;45277;52.768;18.262;2023-12-20T08:12:58;2.63;;;2.53;;
59468;SDS011;45277;52.768;18.262;2023-12-20T08:14:31;2.28;;;2.10;;
59468;SDS011;45277;52.768;18.262;2023-12-20T08:16:03;2.03;;;1.92;;
59468;SDS011;45277;52.768;18.262;2023-12-20T08:17:35;8.52;;;6.05;;
59468;SDS011;45277;52.768;18.262;2023-12-20T08:19:06;16.35;;;12.43;;
59468;SDS011;45277;52.768;18.262;2023-12-20T08:20:38;11.20;;;7.50;;
59468;SDS011;45277;52.768;18.262;2023-12-20T08:22:09;3.35;;;3.15;;
59468;SDS011;45277;52.768;18.262;2023-12-20T08:23:42;5.80;;;3.75;;
59468;SDS011;45277;52.768;18.262;2023-12-20T08:25:13;2.50;;;2.38;;
59468;SDS011;45277;52.768;18.262;2023-12-20T08:26:46;5.45;;;5.05;;
59468;SDS011;45277;52.768;18.262;2023-12-20T08:28:18;3.92;;;3.25;;
59468;SDS011;45277;52.768;18.262;2023-12-20T08:29:49;8.20;;;5.18;;
59468;SDS011;45277;52.768;18.262;2023-12-20T08:31:21;7.15;;;5.93;;
59468;SDS011;45277;52.768;18.262;2023-12-20T08:32:53;5.57;;;4.93;;
59468;SDS011;45277;52.768;18.262;2023-12-20T08:34:24;4.78;;;4.38;;
59468;SDS011;45277;52.768;18.262;2023-12-20T08:35:56;3.58;;;3.38;;
59468;SDS011;45277;52.768;18.262;2023-12-20T08:37:29;1.77;;;1.70;;
59468;SDS011;45277;52.768;18.262;2023-12-20T08:39:00;3.45;;;2.30;;
59468;SDS011;45277;52.768;18.262;2023-12-20T08:40:34;3.15;;;2.95;;
59468;SDS011;45277;52.768;18.262;2023-12-20T08:42:06;3.30;;;2.85;;
59468;SDS011;45277;52.768;18.262;2023-12-20T08:43:37;3.35;;;1.52;;
59468;SDS011;45277;52.768;18.262;2023-12-20T08:45:10;1.80;;;1.70;;
59468;SDS011;45277;52.768;18.262;2023-12-20T08:46:42;3.13;;;2.92;;
59468;SDS011;45277;52.768;18.262;2023-12-20T08:48:14;1.15;;;1.15;;
59468;SDS011;45277;52.768;18.262;2023-12-20T08:49:45;2.78;;;2.58;;
59468;SDS011;45277;52.768;18.262;2023-12-20T08:51:17;2.15;;;2.05;;
59468;SDS011;45277;52.768;18.262;2023-12-20T08:52:49;1.75;;;1.75;;
59468;SDS011;45277;52.768;18.262;2023-12-20T08:54:20;2.05;;;1.75;;
59468;SDS011;45277;52.768;18.262;2023-12-20T08:55:52;2.72;;;2.25;;
59468;SDS011;45277;52.768;18.262;2023-12-20T08:57:24;1.13;;;1.13;;
59468;SDS011;45277;52.768;18.262;2023-12-20T08:58:55;1.92;;;1.83;;
59468;SDS011;45277;52.768;18.262;2023-12-20T09:00:28;1.80;;;1.70;;
59468;SDS011;45277;52.768;18.262;2023-12-20T09:02:00;4.25;;;3.85;;
59468;SDS011;45277;52.768;18.262;2023-12-20T09:03:31;13.20;;;7.63;;